sensor_id;sensor_type;location;lat;lon;timestamp;pressure;altitude;pressure_sealevel;temperature;humidity
63190;BME280;49286;44.460;26.114;2024-01-11T00:01:17;101880.66;;;-4.13;100.00
63190;BME280;49286;44.460;26.114;2024-01-11T00:03:43;101764.16;;;-4.90;100.00
63190;BME280;49286;44.460;26.114;2024-01-11T00:06:09;101806.56;;;-4.73;100.00
63190;BME280;49286;44.460;26.114;2024-01-11T00:08:34;101858.41;;;-4.34;100.00
63190;BME280;49286;44.460;26.114;2024-01-11T00:11:00;101805.78;;;-4.51;100.00
63190;BME280;49286;44.460;26.114;2024-01-11T00:13:25;101864.16;;;-4.16;100.00
63190;BME280;49286;44.460;26.114;2024-01-11T00:15:51;101868.50;;;-4.15;100.00
63190;BME280;49286;44.460;26.114;2024-01-11T00:18:17;101869.28;;;-4.16;100.00
63190;BME280;49286;44.460;26.114;2024-01-11T00:20:42;101844.31;;;-4.29;100.00
63190;BME280;49286;44.460;26.114;2024-01-11T00:23:09;101751.38;;;-4.69;100.00
63190;BME280;49286;44.460;26.114;2024-01-11T00:25:35;101742.44;;;-4.84;100.00
63190;BME280;49286;44.460;26.114;2024-01-11T00:28:01;101770.31;;;-4.98;100.00
63190;BME280;49286;44.460;26.114;2024-01-11T00:30:27;101852.50;;;-4.33;100.00
63190;BME280;49286;44.460;26.114;2024-01-11T00:32:52;101867.75;;;-4.35;100.00
63190;BME280;49286;44.460;26.114;2024-01-11T00:35:18;101829.47;;;-4.54;100.00
63190;BME280;49286;44.460;26.114;2024-01-11T00:37:43;101774.28;;;-4.81;100.00
63190;BME280;49286;44.460;26.114;2024-01-11T00:40:09;101795.91;;;-4.67;100.00
63190;BME280;49286;44.460;26.114;2024-01-11T00:42:35;101860.97;;;-4.34;100.00
63190;BME280;49286;44.460;26.114;2024-01-11T00:45:00;101860.34;;;-4.42;100.00
63190;BME280;49286;44.460;26.114;2024-01-11T00:47:26;101844.47;;;-4.58;100.00
63190;BME280;49286;44.460;26.114;2024-01-11T00:49:52;101847.28;;;-4.65;100.00
63190;BME280;49286;44.460;26.114;2024-01-11T00:52:18;101840.09;;;-4.39;100.00
63190;BME280;49286;44.460;26.114;2024-01-11T00:54:43;101815.75;;;-4.64;100.00
63190;BME280;49286;44.460;26.114;2024-01-11T00:57:09;101838.69;;;-4.46;100.00
63190;BME280;49286;44.460;26.114;2024-01-11T00:59:34;101830.34;;;-4.43;100.00
63190;BME280;49286;44.460;26.114;2024-01-11T01:02:00;101704.41;;;-5.21;100.00
63190;BME280;49286;44.460;26.114;2024-01-11T01:04:25;101798.34;;;-4.69;100.00
63190;BME280;49286;44.460;26.114;2024-01-11T01:06:51;101718.84;;;-5.52;100.00
63190;BME280;49286;44.460;26.114;2024-01-11T01:09:16;101706.97;;;-5.91;100.00
63190;BME280;49286;44.460;26.114;2024-01-11T01:11:42;101821.78;;;-4.84;100.00
63190;BME280;49286;44.460;26.114;2024-01-11T01:14:08;101776.31;;;-4.87;100.00
63190;BME280;49286;44.460;26.114;2024-01-11T01:16:33;101804.13;;;-4.81;100.00
63190;BME280;49286;44.460;26.114;2024-01-11T01:18:59;101789.16;;;-4.77;100.00
63190;BME280;49286;44.460;26.114;2024-01-11T01:21:24;101787.47;;;-4.66;100.00
63190;BME280;49286;44.460;26.114;2024-01-11T01:23:51;101657.06;;;-5.77;100.00
63190;BME280;49286;44.460;26.114;2024-01-11T01:26:16;101676.16;;;-5.43;100.00
63190;BME280;49286;44.460;26.114;2024-01-11T01:28:42;101775.69;;;-4.74;100.00
63190;BME280;49286;44.460;26.114;2024-01-11T01:31:07;101756.88;;;-4.75;100.00
63190;BME280;49286;44.460;26.114;2024-01-11T01:33:33;101667.97;;;-5.18;100.00
63190;BME280;49286;44.460;26.114;2024-01-11T01:35:59;101765.59;;;-4.73;100.00
63190;BME280;49286;44.460;26.114;2024-01-11T01:38:24;101794.75;;;-4.50;100.00
63190;BME280;49286;44.460;26.114;2024-01-11T01:40:50;101753.81;;;-4.81;100.00
63190;BME280;49286;44.460;26.114;2024-01-11T01:43:15;101750.75;;;-4.77;100.00
63190;BME280;49286;44.460;26.114;2024-01-11T01:45:41;101651.09;;;-5.47;100.00
63190;BME280;49286;44.460;26.114;2024-01-11T01:48:07;101737.44;;;-4.93;100.00
63190;BME280;49286;44.460;26.114;2024-01-11T01:50:33;101759.69;;;-4.72;100.00
63190;BME280;49286;44.460;26.114;2024-01-11T01:52:59;101669.75;;;-5.07;100.00
63190;BME280;49286;44.460;26.114;2024-01-11T01:55:26;101720.53;;;-5.01;100.00
63190;BME280;49286;44.460;26.114;2024-01-11T01:57:53;101720.56;;;-4.91;100.00
63190;BME280;49286;44.460;26.114;2024-01-11T02:00:19;101728.19;;;-4.71;100.00
63190;BME280;49286;44.460;26.114;2024-01-11T02:02:46;101727.84;;;-4.75;100.00
63190;BME280;49286;44.460;26.114;2024-01-11T02:05:15;101709.53;;;-5.00;100.00
63190;BME280;49286;44.460;26.114;2024-01-11T02:07:42;101727.94;;;-4.74;100.00
63190;BME280;49286;44.460;26.114;2024-01-11T02:10:08;101585.22;;;-5.60;100.00
63190;BME280;49286;44.460;26.114;2024-01-11T02:12:35;101447.41;;;-6.09;100.00
63190;BME280;49286;44.460;26.114;2024-01-11T02:15:03;101656.19;;;-4.96;100.00
63190;BME280;49286;44.460;26.114;2024-01-11T02:17:30;101710.31;;;-4.91;100.00
63190;BME280;49286;44.460;26.114;2024-01-11T02:19:55;101544.88;;;-6.05;100.00
63190;BME280;49286;44.460;26.114;2024-01-11T02:22:29;101613.22;;;-5.31;100.00
63190;BME280;49286;44.460;26.114;2024-01-11T02:24:56;101577.06;;;-5.45;100.00
63190;BME280;49286;44.460;26.114;2024-01-11T02:27:23;101651.69;;;-4.88;100.00
63190;BME280;49286;44.460;26.114;2024-01-11T02:29:48;101588.56;;;-5.40;100.00
63190;BME280;49286;44.460;26.114;2024-01-11T02:32:14;101589.16;;;-5.12;100.00
63190;BME280;49286;44.460;26.114;2024-01-11T02:34:39;101574.34;;;-5.26;100.00
63190;BME280;49286;44.460;26.114;2024-01-11T02:37:05;101669.19;;;-4.82;100.00
63190;BME280;49286;44.460;26.114;2024-01-11T02:39:31;101648.47;;;-4.85;100.00
63190;BME280;49286;44.460;26.114;2024-01-11T02:41:57;101560.53;;;-5.39;100.00
63190;BME280;49286;44.460;26.114;2024-01-11T02:44:23;101642.47;;;-4.86;100.00
63190;BME280;49286;44.460;26.114;2024-01-11T02:46:49;101480.44;;;-5.70;100.00
63190;BME280;49286;44.460;26.114;2024-01-11T02:49:15;101458.59;;;-5.87;100.00
63190;BME280;49286;44.460;26.114;2024-01-11T02:51:41;101555.78;;;-5.14;100.00
63190;BME280;49286;44.460;26.114;2024-01-11T02:54:06;101537.53;;;-5.28;100.00
63190;BME280;49286;44.460;26.114;2024-01-11T02:56:32;101659.31;;;-4.68;100.00
63190;BME280;49286;44.460;26.114;2024-01-11T02:58:58;101649.38;;;-4.75;100.00
63190;BME280;49286;44.460;26.114;2024-01-11T03:01:23;101654.97;;;-4.69;100.00
63190;BME280;49286;44.460;26.114;2024-01-11T03:03:49;101645.22;;;-4.62;100.00
63190;BME280;49286;44.460;26.114;2024-01-11T03:06:14;101650.59;;;-4.59;100.00
63190;BME280;49286;44.460;26.114;2024-01-11T03:08:40;101580.59;;;-5.23;100.00
63190;BME280;49286;44.460;26.114;2024-01-11T03:11:05;101608.97;;;-4.99;100.00
63190;BME280;49286;44.460;26.114;2024-01-11T03:13:31;101648.06;;;-4.70;100.00
63190;BME280;49286;44.460;26.114;2024-01-11T03:15:56;101627.75;;;-4.89;100.00
63190;BME280;49286;44.460;26.114;2024-01-11T03:18:22;101527.31;;;-5.49;100.00
63190;BME280;49286;44.460;26.114;2024-01-11T03:20:48;101526.91;;;-5.43;100.00
63190;BME280;49286;44.460;26.114;2024-01-11T03:23:13;101590.03;;;-4.91;100.00
63190;BME280;49286;44.460;26.114;2024-01-11T03:25:39;101528.41;;;-5.25;100.00
63190;BME280;49286;44.460;26.114;2024-01-11T03:28:05;101632.41;;;-4.62;100.00
63190;BME280;49286;44.460;26.114;2024-01-11T03:30:30;101539.28;;;-5.17;100.00
63190;BME280;49286;44.460;26.114;2024-01-11T03:32:56;101628.09;;;-4.74;100.00
63190;BME280;49286;44.460;26.114;2024-01-11T03:35:21;101595.78;;;-4.94;100.00
63190;BME280;49286;44.460;26.114;2024-01-11T03:37:47;101618.09;;;-4.71;100.00
63190;BME280;49286;44.460;26.114;2024-01-11T03:40:13;101586.56;;;-4.92;100.00
63190;BME280;49286;44.460;26.114;2024-01-11T03:42:39;101630.78;;;-4.72;100.00
63190;BME280;49286;44.460;26.114;2024-01-11T03:45:06;101508.00;;;-5.35;100.00
63190;BME280;49286;44.460;26.114;2024-01-11T03:47:32;101626.00;;;-4.57;100.00
63190;BME280;49286;44.460;26.114;2024-01-11T03:49:57;101512.31;;;-5.34;100.00
63190;BME280;49286;44.460;26.114;2024-01-11T03:52:23;101614.41;;;-4.74;100.00
63190;BME280;49286;44.460;26.114;2024-01-11T03:54:49;101587.03;;;-4.75;100.00
63190;BME280;49286;44.460;26.114;2024-01-11T03:57:15;101608.25;;;-4.76;100.00
63190;BME280;49286;44.460;26.114;2024-01-11T03:59:40;101490.13;;;-5.45;100.00
63190;BME280;49286;44.460;26.114;2024-01-11T04:02:06;101536.03;;;-5.67;100.00
63190;BME280;49286;44.460;26.114;2024-01-11T04:04:32;101486.44;;;-5.59;100.00
63190;BME280;49286;44.460;26.114;2024-01-11T04:06:58;101593.97;;;-4.84;100.00
63190;BME280;49286;44.460;26.114;2024-01-11T04:09:23;101593.41;;;-4.70;100.00
63190;BME280;49286;44.460;26.114;2024-01-11T04:11:49;101585.00;;;-4.79;100.00
63190;BME280;49286;44.460;26.114;2024-01-11T04:14:15;101591.94;;;-4.89;100.00
63190;BME280;49286;44.460;26.114;2024-01-11T04:16:43;101508.75;;;-5.26;100.00
63190;BME280;49286;44.460;26.114;2024-01-11T04:19:09;101488.19;;;-5.38;100.00
63190;BME280;49286;44.460;26.114;2024-01-11T04:21:35;101596.53;;;-4.84;100.00
63190;BME280;49286;44.460;26.114;2024-01-11T04:24:04;101466.31;;;-5.44;100.00
63190;BME280;49286;44.460;26.114;2024-01-11T04:26:29;101464.19;;;-5.60;100.00
63190;BME280;49286;44.460;26.114;2024-01-11T04:28:55;101555.63;;;-5.05;100.00
63190;BME280;49286;44.460;26.114;2024-01-11T04:31:23;101579.38;;;-4.85;100.00
63190;BME280;49286;44.460;26.114;2024-01-11T04:33:49;101385.19;;;-6.00;100.00
63190;BME280;49286;44.460;26.114;2024-01-11T04:36:14;101559.06;;;-5.04;100.00
63190;BME280;49286;44.460;26.114;2024-01-11T04:38:40;101584.00;;;-4.92;100.00
63190;BME280;49286;44.460;26.114;2024-01-11T04:41:09;101577.22;;;-4.91;100.00
63190;BME280;49286;44.460;26.114;2024-01-11T04:43:43;101586.56;;;-4.92;100.00
63190;BME280;49286;44.460;26.114;2024-01-11T04:46:22;101596.81;;;-5.02;100.00
63190;BME280;49286;44.460;26.114;2024-01-11T04:48:49;101484.50;;;-5.52;100.00
63190;BME280;49286;44.460;26.114;2024-01-11T04:51:15;101565.44;;;-4.89;100.00
63190;BME280;49286;44.460;26.114;2024-01-11T04:53:42;101541.06;;;-5.16;100.00
63190;BME280;49286;44.460;26.114;2024-01-11T04:56:11;101502.47;;;-5.30;100.00
63190;BME280;49286;44.460;26.114;2024-01-11T04:58:39;101497.81;;;-5.66;100.00
63190;BME280;49286;44.460;26.114;2024-01-11T05:01:05;101581.09;;;-5.06;100.00
63190;BME280;49286;44.460;26.114;2024-01-11T05:03:31;101487.19;;;-5.60;100.00
63190;BME280;49286;44.460;26.114;2024-01-11T05:05:58;101456.16;;;-5.75;100.00
63190;BME280;49286;44.460;26.114;2024-01-11T05:08:25;101556.88;;;-5.00;100.00
63190;BME280;49286;44.460;26.114;2024-01-11T05:10:51;101483.34;;;-5.45;100.00
63190;BME280;49286;44.460;26.114;2024-01-11T05:13:17;101551.53;;;-5.03;100.00
63190;BME280;49286;44.460;26.114;2024-01-11T05:15:43;101576.72;;;-4.97;100.00
63190;BME280;49286;44.460;26.114;2024-01-11T05:18:09;101470.47;;;-5.57;100.00
63190;BME280;49286;44.460;26.114;2024-01-11T05:20:34;101268.97;;;-6.68;100.00
63190;BME280;49286;44.460;26.114;2024-01-11T05:23:00;101578.91;;;-5.02;100.00
63190;BME280;49286;44.460;26.114;2024-01-11T05:25:26;101466.91;;;-5.79;100.00
63190;BME280;49286;44.460;26.114;2024-01-11T05:27:56;101555.72;;;-5.03;100.00
63190;BME280;49286;44.460;26.114;2024-01-11T05:30:22;101531.47;;;-5.19;100.00
63190;BME280;49286;44.460;26.114;2024-01-11T05:32:47;101511.16;;;-5.27;100.00
63190;BME280;49286;44.460;26.114;2024-01-11T05:35:13;101452.66;;;-5.55;100.00
63190;BME280;49286;44.460;26.114;2024-01-11T05:37:39;101428.94;;;-5.75;100.00
63190;BME280;49286;44.460;26.114;2024-01-11T05:40:05;101436.63;;;-5.85;100.00
63190;BME280;49286;44.460;26.114;2024-01-11T05:42:30;101544.81;;;-5.33;100.00
63190;BME280;49286;44.460;26.114;2024-01-11T05:44:56;101575.78;;;-4.88;100.00
63190;BME280;49286;44.460;26.114;2024-01-11T05:47:21;101480.97;;;-5.32;100.00
63190;BME280;49286;44.460;26.114;2024-01-11T05:49:47;101474.47;;;-5.28;100.00
63190;BME280;49286;44.460;26.114;2024-01-11T05:52:13;101448.00;;;-5.39;100.00
63190;BME280;49286;44.460;26.114;2024-01-11T05:54:39;101526.03;;;-4.91;100.00
63190;BME280;49286;44.460;26.114;2024-01-11T05:57:04;101552.59;;;-4.79;100.00
63190;BME280;49286;44.460;26.114;2024-01-11T05:59:30;101528.88;;;-4.98;100.00
63190;BME280;49286;44.460;26.114;2024-01-11T06:01:55;101555.09;;;-4.69;100.00
63190;BME280;49286;44.460;26.114;2024-01-11T06:04:25;101461.91;;;-5.25;100.00
63190;BME280;49286;44.460;26.114;2024-01-11T06:06:52;101398.50;;;-5.61;100.00
63190;BME280;49286;44.460;26.114;2024-01-11T06:09:17;101444.25;;;-5.54;100.00
63190;BME280;49286;44.460;26.114;2024-01-11T06:11:43;101540.59;;;-4.80;100.00
63190;BME280;49286;44.460;26.114;2024-01-11T06:14:09;101525.97;;;-4.81;100.00
63190;BME280;49286;44.460;26.114;2024-01-11T06:16:34;101535.19;;;-4.83;100.00
63190;BME280;49286;44.460;26.114;2024-01-11T06:19:00;101433.81;;;-5.35;100.00
63190;BME280;49286;44.460;26.114;2024-01-11T06:21:25;101514.34;;;-4.77;100.00
63190;BME280;49286;44.460;26.114;2024-01-11T06:23:51;101472.44;;;-5.00;100.00
63190;BME280;49286;44.460;26.114;2024-01-11T06:26:16;101542.38;;;-4.57;100.00
63190;BME280;49286;44.460;26.114;2024-01-11T06:28:42;101542.00;;;-4.61;100.00
63190;BME280;49286;44.460;26.114;2024-01-11T06:31:09;101528.25;;;-4.74;100.00
63190;BME280;49286;44.460;26.114;2024-01-11T06:33:35;101509.28;;;-4.65;100.00
63190;BME280;49286;44.460;26.114;2024-01-11T06:36:06;101468.56;;;-4.95;100.00
63190;BME280;49286;44.460;26.114;2024-01-11T06:38:35;101475.22;;;-4.86;100.00
63190;BME280;49286;44.460;26.114;2024-01-11T06:41:00;101435.81;;;-4.99;100.00
63190;BME280;49286;44.460;26.114;2024-01-11T06:43:26;101524.34;;;-4.58;100.00
63190;BME280;49286;44.460;26.114;2024-01-11T06:45:51;101472.78;;;-4.63;100.00
63190;BME280;49286;44.460;26.114;2024-01-11T06:48:18;101546.22;;;-4.30;100.00
63190;BME280;49286;44.460;26.114;2024-01-11T06:50:43;101535.00;;;-4.20;100.00
63190;BME280;49286;44.460;26.114;2024-01-11T06:53:09;101540.00;;;-4.21;100.00
63190;BME280;49286;44.460;26.114;2024-01-11T06:55:35;101406.06;;;-5.09;100.00
63190;BME280;49286;44.460;26.114;2024-01-11T06:58:01;101520.16;;;-4.24;100.00
63190;BME280;49286;44.460;26.114;2024-01-11T07:00:27;101521.13;;;-4.34;100.00
63190;BME280;49286;44.460;26.114;2024-01-11T07:02:53;101426.56;;;-4.86;100.00
63190;BME280;49286;44.460;26.114;2024-01-11T07:05:19;101541.97;;;-4.07;100.00
63190;BME280;49286;44.460;26.114;2024-01-11T07:07:44;101421.31;;;-4.66;100.00
63190;BME280;49286;44.460;26.114;2024-01-11T07:10:10;101530.28;;;-4.04;100.00
63190;BME280;49286;44.460;26.114;2024-01-11T07:12:35;101444.94;;;-4.36;100.00
63190;BME280;49286;44.460;26.114;2024-01-11T07:15:03;101438.25;;;-4.34;100.00
63190;BME280;49286;44.460;26.114;2024-01-11T07:17:30;101521.44;;;-3.85;100.00
63190;BME280;49286;44.460;26.114;2024-01-11T07:19:55;101414.00;;;-4.28;100.00
63190;BME280;49286;44.460;26.114;2024-01-11T07:22:21;101521.94;;;-3.55;100.00
63190;BME280;49286;44.460;26.114;2024-01-11T07:24:46;101503.31;;;-3.65;100.00
63190;BME280;49286;44.460;26.114;2024-01-11T07:27:12;101493.38;;;-3.60;100.00
63190;BME280;49286;44.460;26.114;2024-01-11T07:29:38;101500.84;;;-3.63;100.00
63190;BME280;49286;44.460;26.114;2024-01-11T07:32:04;101492.72;;;-3.46;100.00
63190;BME280;49286;44.460;26.114;2024-01-11T07:34:29;101504.22;;;-3.17;100.00
63190;BME280;49286;44.460;26.114;2024-01-11T07:36:55;101505.09;;;-3.28;100.00
63190;BME280;49286;44.460;26.114;2024-01-11T07:39:22;101498.31;;;-3.04;100.00
63190;BME280;49286;44.460;26.114;2024-01-11T07:41:48;101370.84;;;-3.64;100.00
63190;BME280;49286;44.460;26.114;2024-01-11T07:44:14;101483.31;;;-2.86;100.00
63190;BME280;49286;44.460;26.114;2024-01-11T07:46:39;101471.28;;;-2.99;100.00
63190;BME280;49286;44.460;26.114;2024-01-11T07:49:06;101490.47;;;-2.82;100.00
63190;BME280;49286;44.460;26.114;2024-01-11T07:51:33;101451.41;;;-2.90;100.00
63190;BME280;49286;44.460;26.114;2024-01-11T07:53:59;101356.31;;;-3.40;100.00
63190;BME280;49286;44.460;26.114;2024-01-11T07:56:26;101472.75;;;-2.54;100.00
63190;BME280;49286;44.460;26.114;2024-01-11T07:58:51;101343.78;;;-3.24;100.00
63190;BME280;49286;44.460;26.114;2024-01-11T08:01:17;101444.97;;;-2.60;100.00
63190;BME280;49286;44.460;26.114;2024-01-11T08:03:43;101463.38;;;-2.28;100.00
63190;BME280;49286;44.460;26.114;2024-01-11T08:06:12;101340.56;;;-2.96;100.00
63190;BME280;49286;44.460;26.114;2024-01-11T08:08:38;101375.59;;;-2.60;100.00
63190;BME280;49286;44.460;26.114;2024-01-11T08:11:10;101447.91;;;-2.17;100.00
63190;BME280;49286;44.460;26.114;2024-01-11T08:13:38;101452.53;;;-2.11;100.00
63190;BME280;49286;44.460;26.114;2024-01-11T08:16:04;101444.50;;;-2.29;100.00
63190;BME280;49286;44.460;26.114;2024-01-11T08:18:33;101339.63;;;-2.85;100.00
63190;BME280;49286;44.460;26.114;2024-01-11T08:20:58;101466.94;;;-2.01;100.00
63190;BME280;49286;44.460;26.114;2024-01-11T08:23:24;101436.34;;;-2.10;100.00
63190;BME280;49286;44.460;26.114;2024-01-11T08:25:49;101355.81;;;-2.36;100.00
63190;BME280;49286;44.460;26.114;2024-01-11T08:28:15;101468.25;;;-1.81;100.00
63190;BME280;49286;44.460;26.114;2024-01-11T08:30:40;101483.59;;;-1.83;100.00
63190;BME280;49286;44.460;26.114;2024-01-11T08:33:07;101367.09;;;-2.20;100.00
63190;BME280;49286;44.460;26.114;2024-01-11T08:35:33;101422.56;;;-1.72;100.00
63190;BME280;49286;44.460;26.114;2024-01-11T08:37:58;101430.78;;;-1.78;100.00
63190;BME280;49286;44.460;26.114;2024-01-11T08:40:24;101340.13;;;-2.27;100.00
63190;BME280;49286;44.460;26.114;2024-01-11T08:42:50;101319.06;;;-2.08;100.00
63190;BME280;49286;44.460;26.114;2024-01-11T08:45:16;101414.75;;;-1.34;100.00
63190;BME280;49286;44.460;26.114;2024-01-11T08:47:46;101330.84;;;-1.72;100.00
63190;BME280;49286;44.460;26.114;2024-01-11T08:50:13;101329.94;;;-1.72;100.00
63190;BME280;49286;44.460;26.114;2024-01-11T08:52:40;101324.81;;;-1.72;100.00
63190;BME280;49286;44.460;26.114;2024-01-11T08:55:06;101332.13;;;-1.65;100.00
63190;BME280;49286;44.460;26.114;2024-01-11T08:57:32;101425.72;;;-1.10;100.00
63190;BME280;49286;44.460;26.114;2024-01-11T08:59:58;101402.28;;;-1.28;100.00
63190;BME280;49286;44.460;26.114;2024-01-11T09:02:23;101391.69;;;-1.32;100.00
63190;BME280;49286;44.460;26.114;2024-01-11T09:04:49;101302.94;;;-1.65;100.00
63190;BME280;49286;44.460;26.114;2024-01-11T09:07:16;101285.41;;;-1.71;100.00
63190;BME280;49286;44.460;26.114;2024-01-11T09:09:41;101411.91;;;-0.97;100.00
63190;BME280;49286;44.460;26.114;2024-01-11T09:12:07;101304.69;;;-1.51;100.00
63190;BME280;49286;44.460;26.114;2024-01-11T09:14:32;101403.38;;;-0.82;100.00
63190;BME280;49286;44.460;26.114;2024-01-11T09:16:58;101405.09;;;-0.68;100.00
63190;BME280;49286;44.460;26.114;2024-01-11T09:19:23;101407.66;;;-0.68;100.00
63190;BME280;49286;44.460;26.114;2024-01-11T09:21:49;101247.91;;;-1.67;100.00
63190;BME280;49286;44.460;26.114;2024-01-11T09:24:15;101379.88;;;-0.59;100.00
63190;BME280;49286;44.460;26.114;2024-01-11T09:26:40;101382.97;;;-0.36;100.00
63190;BME280;49286;44.460;26.114;2024-01-11T09:29:06;101367.78;;;-0.75;100.00
63190;BME280;49286;44.460;26.114;2024-01-11T09:31:31;101366.63;;;-0.37;100.00
63190;BME280;49286;44.460;26.114;2024-01-11T09:33:57;101290.91;;;-1.10;100.00
63190;BME280;49286;44.460;26.114;2024-01-11T09:36:22;101336.66;;;-0.78;100.00
63190;BME280;49286;44.460;26.114;2024-01-11T09:38:48;101338.91;;;-0.69;100.00
63190;BME280;49286;44.460;26.114;2024-01-11T09:41:14;101347.13;;;-0.47;100.00
63190;BME280;49286;44.460;26.114;2024-01-11T09:43:43;101339.28;;;-0.48;100.00
63190;BME280;49286;44.460;26.114;2024-01-11T09:46:10;101223.13;;;-0.81;100.00
63190;BME280;49286;44.460;26.114;2024-01-11T09:48:38;101233.78;;;-0.60;100.00
63190;BME280;49286;44.460;26.114;2024-01-11T09:51:09;101234.22;;;-0.52;100.00
63190;BME280;49286;44.460;26.114;2024-01-11T09:53:37;101295.47;;;-0.04;100.00
63190;BME280;49286;44.460;26.114;2024-01-11T09:56:07;101317.50;;;0.06;100.00
63190;BME280;49286;44.460;26.114;2024-01-11T09:58:34;101269.16;;;-0.13;100.00
63190;BME280;49286;44.460;26.114;2024-01-11T10:01:09;101290.94;;;0.38;100.00
63190;BME280;49286;44.460;26.114;2024-01-11T10:03:35;101264.41;;;0.10;100.00
63190;BME280;49286;44.460;26.114;2024-01-11T10:06:02;101211.41;;;-0.15;100.00
63190;BME280;49286;44.460;26.114;2024-01-11T10:08:30;101270.31;;;0.55;100.00
63190;BME280;49286;44.460;26.114;2024-01-11T10:10:56;101179.38;;;-0.04;100.00
63190;BME280;49286;44.460;26.114;2024-01-11T10:13:27;101253.03;;;0.54;100.00
63190;BME280;49286;44.460;26.114;2024-01-11T10:16:13;101256.53;;;0.54;100.00
63190;BME280;49286;44.460;26.114;2024-01-11T10:18:38;101140.72;;;0.13;100.00
63190;BME280;49286;44.460;26.114;2024-01-11T10:21:05;101144.75;;;0.24;100.00
63190;BME280;49286;44.460;26.114;2024-01-11T10:23:33;101243.78;;;0.74;100.00
63190;BME280;49286;44.460;26.114;2024-01-11T10:25:59;101198.75;;;0.52;100.00
63190;BME280;49286;44.460;26.114;2024-01-11T10:28:25;101105.81;;;0.19;100.00
63190;BME280;49286;44.460;26.114;2024-01-11T10:30:52;101206.09;;;0.94;100.00
63190;BME280;49286;44.460;26.114;2024-01-11T10:33:22;101216.69;;;1.16;100.00
63190;BME280;49286;44.460;26.114;2024-01-11T10:35:48;101172.41;;;0.92;99.55
63190;BME280;49286;44.460;26.114;2024-01-11T10:38:15;101172.94;;;1.03;95.55
63190;BME280;49286;44.460;26.114;2024-01-11T10:40:42;101194.75;;;1.08;92.04
63190;BME280;49286;44.460;26.114;2024-01-11T10:43:11;101194.44;;;1.36;89.87
63190;BME280;49286;44.460;26.114;2024-01-11T10:45:37;101167.63;;;1.00;86.12
63190;BME280;49286;44.460;26.114;2024-01-11T10:48:16;101184.84;;;1.34;81.58
63190;BME280;49286;44.460;26.114;2024-01-11T10:50:45;101182.78;;;1.80;80.00
63190;BME280;49286;44.460;26.114;2024-01-11T10:56:03;101077.25;;;1.37;74.12
63190;BME280;49286;44.460;26.114;2024-01-11T10:58:30;101050.75;;;1.41;69.06
63190;BME280;49286;44.460;26.114;2024-01-11T11:00:58;101060.91;;;1.74;65.48
63190;BME280;49286;44.460;26.114;2024-01-11T11:03:26;101121.00;;;2.45;65.72
63190;BME280;49286;44.460;26.114;2024-01-11T11:05:58;101048.81;;;1.93;66.06
63190;BME280;49286;44.460;26.114;2024-01-11T11:08:24;100962.91;;;2.01;66.62
63190;BME280;49286;44.460;26.114;2024-01-11T11:11:00;101098.53;;;2.44;63.91
63190;BME280;49286;44.460;26.114;2024-01-11T11:13:26;101062.00;;;2.78;66.74
63190;BME280;49286;44.460;26.114;2024-01-11T11:15:53;100985.38;;;2.85;65.27
63190;BME280;49286;44.460;26.114;2024-01-11T11:18:19;101086.97;;;3.18;62.54
63190;BME280;49286;44.460;26.114;2024-01-11T11:20:47;101011.88;;;2.57;63.85
63190;BME280;49286;44.460;26.114;2024-01-11T11:23:18;101095.75;;;2.80;65.30
63190;BME280;49286;44.460;26.114;2024-01-11T11:25:48;101066.69;;;2.27;67.61
63190;BME280;49286;44.460;26.114;2024-01-11T11:28:15;101042.78;;;2.32;68.40
63190;BME280;49286;44.460;26.114;2024-01-11T11:30:42;100983.94;;;1.89;70.88
63190;BME280;49286;44.460;26.114;2024-01-11T11:33:20;101081.59;;;2.52;70.83
63190;BME280;49286;44.460;26.114;2024-01-11T11:35:46;101081.19;;;2.62;76.30
63190;BME280;49286;44.460;26.114;2024-01-11T11:38:21;101066.41;;;3.02;74.33
63190;BME280;49286;44.460;26.114;2024-01-11T11:40:48;101044.81;;;2.80;75.96
63190;BME280;49286;44.460;26.114;2024-01-11T11:43:17;101042.06;;;2.56;79.14
63190;BME280;49286;44.460;26.114;2024-01-11T11:45:44;101053.50;;;2.61;79.50
63190;BME280;49286;44.460;26.114;2024-01-11T11:51:22;101037.31;;;2.67;82.46
63190;BME280;49286;44.460;26.114;2024-01-11T11:53:50;100979.50;;;2.26;81.32
63190;BME280;49286;44.460;26.114;2024-01-11T11:56:22;101005.22;;;2.02;86.21
63190;BME280;49286;44.460;26.114;2024-01-11T11:58:49;100905.75;;;1.37;83.07
63190;BME280;49286;44.460;26.114;2024-01-11T12:01:18;101009.34;;;1.98;85.16
63190;BME280;49286;44.460;26.114;2024-01-11T12:03:45;101036.94;;;2.17;85.88
63190;BME280;49286;44.460;26.114;2024-01-11T12:06:18;100996.09;;;1.71;87.52
63190;BME280;49286;44.460;26.114;2024-01-11T12:08:45;101039.31;;;2.13;87.27
63190;BME280;49286;44.460;26.114;2024-01-11T12:11:18;101007.44;;;2.14;90.34
63190;BME280;49286;44.460;26.114;2024-01-11T12:13:44;100958.41;;;1.39;88.10
63190;BME280;49286;44.460;26.114;2024-01-11T12:16:11;100917.31;;;1.45;88.42
63190;BME280;49286;44.460;26.114;2024-01-11T12:18:37;100874.72;;;1.37;91.87
63190;BME280;49286;44.460;26.114;2024-01-11T12:21:04;100988.28;;;2.10;89.21
63190;BME280;49286;44.460;26.114;2024-01-11T12:23:33;100970.53;;;1.98;88.64
63190;BME280;49286;44.460;26.114;2024-01-11T12:26:03;100885.94;;;1.76;87.76
63190;BME280;49286;44.460;26.114;2024-01-11T12:28:33;100884.31;;;1.78;86.39
63190;BME280;49286;44.460;26.114;2024-01-11T12:31:00;100969.03;;;2.23;88.42
63190;BME280;49286;44.460;26.114;2024-01-11T12:33:26;100935.75;;;2.32;86.59
63190;BME280;49286;44.460;26.114;2024-01-11T12:35:52;100961.31;;;2.66;86.68